createdAt,value
2018-06-29T00:02:05.010Z,99.90
2018-06-29T00:04:32.006Z,99.90
2018-06-29T00:06:59.007Z,99.50
2018-06-29T00:09:26.037Z,99.90
2018-06-29T00:11:53.043Z,99.90
2018-06-29T00:14:20.046Z,99.90
2018-06-29T00:16:47.091Z,99.90
2018-06-29T00:19:14.091Z,99.90
2018-06-29T00:24:20.546Z,99.40
2018-06-29T00:29:14.640Z,99.00
2018-06-29T00:31:41.673Z,98.90
2018-06-29T00:34:08.676Z,97.90
2018-06-29T00:36:35.700Z,98.70
2018-06-29T00:41:29.796Z,99.30
2018-06-29T00:43:56.784Z,99.20
2018-06-29T00:46:23.829Z,99.90
2018-06-29T00:48:50.824Z,99.90
2018-06-29T00:51:17.823Z,99.90
2018-06-29T00:53:44.855Z,99.90
2018-06-29T00:56:11.855Z,99.90
2018-06-29T00:58:38.848Z,99.90
2018-06-29T01:01:05.885Z,99.90
2018-06-29T01:03:32.890Z,99.90
2018-06-29T01:05:59.887Z,99.90
2018-06-29T01:08:26.930Z,99.70
2018-06-29T01:10:53.924Z,99.90
2018-06-29T01:13:20.915Z,99.90
2018-06-29T01:15:47.968Z,99.90
2018-06-29T01:18:14.965Z,99.80
2018-06-29T01:20:41.979Z,99.50
2018-06-29T01:23:08.988Z,99.80
2018-06-29T01:25:35.991Z,99.60
2018-06-29T01:28:02.992Z,99.30
2018-06-29T01:30:30.034Z,99.70
2018-06-29T01:32:57.031Z,99.90
2018-06-29T01:38:02.583Z,99.90
2018-06-29T01:40:29.722Z,99.90
2018-06-29T01:42:56.721Z,99.90
2018-06-29T01:45:23.768Z,99.40
2018-06-29T01:47:50.771Z,99.60
2018-06-29T01:50:17.765Z,98.10
2018-06-29T01:52:44.833Z,97.80
2018-06-29T01:55:11.826Z,98.00
2018-06-29T01:57:38.811Z,98.20
2018-06-29T02:00:05.840Z,98.20
2018-06-29T02:02:32.847Z,99.00
2018-06-29T02:04:59.852Z,99.10
2018-06-29T02:07:26.922Z,99.10
2018-06-29T02:12:21.964Z,99.90
2018-06-29T02:14:48.998Z,99.90
2018-06-29T02:17:16.006Z,99.90
2018-06-29T02:19:43.008Z,99.80
2018-06-29T02:22:10.045Z,99.90
2018-06-29T02:24:37.050Z,99.90
2018-06-29T02:27:04.050Z,99.90
2018-06-29T02:29:31.089Z,99.90
2018-06-29T02:31:58.100Z,99.90
2018-06-29T02:36:52.210Z,99.90
2018-06-29T02:39:19.217Z,99.90
2018-06-29T02:41:46.212Z,99.90
2018-06-29T02:44:13.252Z,99.90
2018-06-29T02:49:21.719Z,99.90
2018-06-29T02:51:48.719Z,99.90
2018-06-29T02:54:15.719Z,99.90
2018-06-29T02:56:42.740Z,99.70
2018-06-29T02:59:09.748Z,99.90
2018-06-29T03:01:37.573Z,99.90
2018-06-29T03:04:04.618Z,99.90
2018-06-29T03:06:31.617Z,99.90
2018-06-29T03:08:58.614Z,99.90
2018-06-29T03:11:26.603Z,99.90
2018-06-29T03:16:20.691Z,99.90
2018-06-29T03:18:47.726Z,99.90
2018-06-29T03:21:14.747Z,99.90
2018-06-29T03:23:41.753Z,99.90
2018-06-29T03:26:08.804Z,99.90
2018-06-29T03:28:36.758Z,99.90
2018-06-29T03:31:03.757Z,99.90
2018-06-29T03:33:30.789Z,99.90
2018-06-29T03:35:57.785Z,99.90
2018-06-29T03:40:52.738Z,99.90
2018-06-29T03:43:19.746Z,99.90
2018-06-29T03:45:46.738Z,99.90
2018-06-29T03:48:13.770Z,99.90
2018-06-29T03:50:40.769Z,99.90
2018-06-29T03:53:07.770Z,99.90
2018-06-29T03:55:34.815Z,99.90
2018-06-29T03:58:01.815Z,99.90
2018-06-29T04:02:56.410Z,99.90
2018-06-29T04:08:01.785Z,99.90
2018-06-29T04:12:56.803Z,99.90
2018-06-29T04:15:23.823Z,99.90
2018-06-29T04:17:50.846Z,99.90
2018-06-29T04:20:17.833Z,99.90
2018-06-29T04:25:12.776Z,99.90
2018-06-29T04:27:39.776Z,99.90
2018-06-29T04:30:06.821Z,99.90
2018-06-29T04:32:33.827Z,99.90
2018-06-29T04:35:00.815Z,99.90
2018-06-29T04:37:27.865Z,99.90
2018-06-29T04:42:21.949Z,99.90
2018-06-29T04:44:48.985Z,99.90
2018-06-29T04:47:15.981Z,99.90
2018-06-29T04:49:42.984Z,99.90
2018-06-29T04:52:10.029Z,99.90
2018-06-29T04:54:37.018Z,99.90
2018-06-29T04:57:04.023Z,99.90
2018-06-29T04:59:31.067Z,99.90
2018-06-29T05:01:58.069Z,99.90
2018-06-29T05:04:25.074Z,99.90
2018-06-29T05:06:52.117Z,99.90
2018-06-29T05:11:46.212Z,99.90
2018-06-29T05:14:13.250Z,99.90
2018-06-29T05:19:07.333Z,99.90
2018-06-29T05:21:34.389Z,99.90
2018-06-29T05:24:01.367Z,99.90
2018-06-29T05:29:06.895Z,99.90
2018-06-29T05:34:00.968Z,99.90
2018-06-29T05:36:27.988Z,99.90
2018-06-29T05:38:55.001Z,99.90
2018-06-29T05:41:22.047Z,99.80
2018-06-29T05:43:49.039Z,99.90
2018-06-29T05:46:16.095Z,99.60
2018-06-29T05:48:43.241Z,99.90
2018-06-29T05:51:10.290Z,99.60
2018-06-29T05:56:15.422Z,97.10
2018-06-29T05:58:42.410Z,98.70
2018-06-29T06:01:09.562Z,97.40
2018-06-29T06:03:36.640Z,95.20
2018-06-29T06:06:03.596Z,95.90
2018-06-29T06:08:30.598Z,97.90
2018-06-29T06:10:57.836Z,97.80
2018-06-29T06:13:24.938Z,98.50
2018-06-29T06:15:51.904Z,98.20
2018-06-29T06:18:18.934Z,97.30
2018-06-29T06:20:45.931Z,97.50
2018-06-29T06:23:12.917Z,96.20
2018-06-29T06:25:39.946Z,97.10
2018-06-29T06:28:06.956Z,96.00
2018-06-29T06:30:33.945Z,97.20
2018-06-29T06:33:01.038Z,98.10
2018-06-29T06:35:27.986Z,98.30
2018-06-29T06:37:54.983Z,98.80
2018-06-29T06:40:22.007Z,98.80
2018-06-29T06:42:48.999Z,98.40
2018-06-29T06:45:16.014Z,98.80
2018-06-29T06:47:43.043Z,98.50
2018-06-29T06:50:10.047Z,98.90
2018-06-29T06:52:37.039Z,97.00
2018-06-29T06:55:04.080Z,97.90
2018-06-29T06:57:31.107Z,97.50
2018-06-29T06:59:59.043Z,96.60
2018-06-29T07:02:26.065Z,94.50
2018-06-29T07:04:53.054Z,94.50
2018-06-29T07:09:47.154Z,93.60
2018-06-29T07:12:14.154Z,92.30
2018-06-29T07:17:20.496Z,94.10
2018-06-29T07:19:47.483Z,93.70
2018-06-29T07:22:14.482Z,92.00
2018-06-29T07:24:42.471Z,92.60
2018-06-29T07:27:09.480Z,91.90
2018-06-29T07:29:36.463Z,87.20
2018-06-29T07:32:03.519Z,90.00
2018-06-29T07:34:30.511Z,88.30
2018-06-29T07:39:24.637Z,89.80
2018-06-29T07:41:51.641Z,87.70
2018-06-29T07:46:45.815Z,82.10
2018-06-29T07:49:12.765Z,83.60
2018-06-29T07:51:39.784Z,82.60
2018-06-29T07:54:06.855Z,82.40
2018-06-29T07:56:33.844Z,84.40
2018-06-29T07:59:00.850Z,82.40
2018-06-29T08:01:27.886Z,82.70
2018-06-29T08:03:55.062Z,81.10
2018-06-29T08:06:21.876Z,81.20
2018-06-29T08:08:48.902Z,79.50
2018-06-29T08:11:15.912Z,79.20
2018-06-29T08:13:42.919Z,80.60
2018-06-29T08:16:09.953Z,80.80
2018-06-29T08:18:36.947Z,78.50
2018-06-29T08:21:03.942Z,80.40
2018-06-29T08:23:30.975Z,83.20
2018-06-29T08:28:36.478Z,85.00
2018-06-29T08:31:03.476Z,85.30
2018-06-29T08:33:30.472Z,84.40
2018-06-29T08:35:57.513Z,86.30
2018-06-29T08:40:51.599Z,88.50
2018-06-29T08:43:18.625Z,87.70
2018-06-29T08:45:45.626Z,87.70
2018-06-29T08:48:12.670Z,86.60
2018-06-29T08:50:39.707Z,88.50
2018-06-29T08:53:06.737Z,85.80
2018-06-29T08:55:33.732Z,86.80
2018-06-29T08:58:00.799Z,85.90
2018-06-29T09:00:27.797Z,86.90
2018-06-29T09:02:54.795Z,87.50
2018-06-29T09:05:21.869Z,85.20
2018-06-29T09:07:48.893Z,87.00
2018-06-29T09:10:15.903Z,85.90
2018-06-29T09:12:42.940Z,86.10
2018-06-29T09:15:09.937Z,85.90
2018-06-29T09:17:36.949Z,85.50
2018-06-29T09:20:03.987Z,85.50
2018-06-29T09:22:30.997Z,85.90
2018-06-29T09:24:58.822Z,84.00
2018-06-29T09:27:25.854Z,85.20
2018-06-29T09:29:52.910Z,84.50
2018-06-29T09:32:19.869Z,83.50
2018-06-29T09:34:46.905Z,82.30
2018-06-29T09:37:13.912Z,84.10
2018-06-29T09:39:40.912Z,82.10
2018-06-29T09:47:13.583Z,80.50
2018-06-29T09:49:40.579Z,77.40
2018-06-29T09:52:07.576Z,75.70
2018-06-29T09:54:34.609Z,77.00
2018-06-29T09:57:01.616Z,75.60
2018-06-29T09:59:28.610Z,76.90
2018-06-29T10:01:55.646Z,76.90
2018-06-29T10:04:22.655Z,75.30
2018-06-29T10:06:49.657Z,75.90
2018-06-29T10:09:16.824Z,77.40
2018-06-29T10:11:43.724Z,77.90
2018-06-29T10:14:10.874Z,77.80
2018-06-29T10:16:38.591Z,80.00
2018-06-29T10:21:32.683Z,80.70
2018-06-29T10:24:00.588Z,78.00
2018-06-29T10:26:27.600Z,76.40
2018-06-29T10:28:54.600Z,77.60
2018-06-29T10:31:21.656Z,75.30
2018-06-29T10:33:48.647Z,74.80
2018-06-29T10:36:15.659Z,74.90
2018-06-29T10:38:42.726Z,73.10
2018-06-29T10:41:09.686Z,74.90
2018-06-29T10:43:36.692Z,75.10
2018-06-29T10:48:42.188Z,74.90
2018-06-29T10:51:09.237Z,72.80
2018-06-29T10:53:36.227Z,74.30
2018-06-29T10:56:03.231Z,70.20
2018-06-29T10:58:31.202Z,73.30
2018-06-29T11:03:25.260Z,74.30
2018-06-29T11:05:53.122Z,72.10
2018-06-29T11:08:20.113Z,72.40
2018-06-29T11:10:47.118Z,73.10
2018-06-29T11:13:14.166Z,70.40
2018-06-29T11:15:41.883Z,71.10
2018-06-29T11:18:08.879Z,72.80
2018-06-29T11:20:36.720Z,76.30
2018-06-29T11:23:03.720Z,72.30
2018-06-29T11:25:30.727Z,69.00
2018-06-29T11:27:57.756Z,69.10
2018-06-29T11:30:24.776Z,65.30
2018-06-29T11:32:51.752Z,67.10
2018-06-29T11:35:18.798Z,66.20
2018-06-29T11:37:45.802Z,67.30
2018-06-29T11:40:12.817Z,66.30
2018-06-29T11:42:39.860Z,67.30
2018-06-29T11:45:06.837Z,66.10
2018-06-29T11:47:33.839Z,68.60
2018-06-29T11:52:29.609Z,71.90
2018-06-29T11:54:56.612Z,72.30
2018-06-29T11:57:23.634Z,76.10
2018-06-29T11:59:50.638Z,76.30
2018-06-29T12:02:17.657Z,78.40
2018-06-29T12:09:51.300Z,80.10
2018-06-29T12:12:18.301Z,80.40
2018-06-29T12:14:45.308Z,80.00
2018-06-29T12:17:12.330Z,78.70
2018-06-29T12:19:39.338Z,77.90
2018-06-29T12:22:06.346Z,78.70
2018-06-29T12:24:33.391Z,76.90
2018-06-29T12:27:00.397Z,79.00
2018-06-29T12:29:27.396Z,78.70
2018-06-29T12:31:54.433Z,76.10
2018-06-29T12:34:21.447Z,78.50
2018-06-29T12:36:48.435Z,79.20
2018-06-29T12:39:15.472Z,76.90
2018-06-29T12:41:42.479Z,78.40
2018-06-29T12:44:09.490Z,77.90
2018-06-29T12:46:36.529Z,78.70
2018-06-29T12:49:04.346Z,75.80
2018-06-29T12:51:31.411Z,71.80
2018-06-29T12:53:58.385Z,73.80
2018-06-29T12:56:25.378Z,70.00
2018-06-29T12:58:52.371Z,74.00
2018-06-29T13:01:19.413Z,73.90
2018-06-29T13:03:46.415Z,74.30
2018-06-29T13:06:13.424Z,71.40
2018-06-29T13:08:40.464Z,72.70
2018-06-29T13:11:07.510Z,71.60
2018-06-29T13:13:34.508Z,73.50
2018-06-29T13:16:01.538Z,76.40
2018-06-29T13:18:28.544Z,74.60
2018-06-29T13:20:55.543Z,73.00
2018-06-29T13:23:22.562Z,75.30
2018-06-29T13:28:28.125Z,75.40
2018-06-29T13:30:55.143Z,75.80
2018-06-29T13:33:23.055Z,73.90
2018-06-29T13:35:50.089Z,73.70
2018-06-29T13:38:17.113Z,75.00
2018-06-29T13:40:45.041Z,74.70
2018-06-29T13:43:12.076Z,69.30
2018-06-29T13:45:39.091Z,70.00
2018-06-29T13:48:06.083Z,70.40
2018-06-29T13:50:33.126Z,65.50
2018-06-29T13:53:00.119Z,65.80
2018-06-29T13:55:27.134Z,67.30
2018-06-29T13:57:54.976Z,61.40
2018-06-29T14:00:21.966Z,65.00
2018-06-29T14:05:16.906Z,59.80
2018-06-29T14:07:43.922Z,62.10
2018-06-29T14:10:10.910Z,61.70
2018-06-29T14:12:37.936Z,60.50
2018-06-29T14:15:04.948Z,57.30
2018-06-29T14:17:32.698Z,57.40
2018-06-29T14:19:59.740Z,55.50
2018-06-29T14:22:26.735Z,59.60
2018-06-29T14:24:53.749Z,56.30
2018-06-29T14:27:20.791Z,57.80
2018-06-29T14:29:47.793Z,51.80
2018-06-29T14:32:14.795Z,48.00
2018-06-29T14:34:41.911Z,44.50
2018-06-29T14:37:08.829Z,46.70
2018-06-29T14:39:35.828Z,41.20
2018-06-29T14:42:02.874Z,39.10
2018-06-29T14:44:29.868Z,39.70
2018-06-29T14:49:35.400Z,31.50
2018-06-29T14:52:03.329Z,27.80
2018-06-29T14:54:30.343Z,26.30
2018-06-29T14:56:57.381Z,25.70
2018-06-29T14:59:24.430Z,25.60
2018-06-29T15:01:51.388Z,24.90
2018-06-29T15:04:18.430Z,25.60
2018-06-29T15:06:45.429Z,28.10
2018-06-29T15:11:39.568Z,25.80
2018-06-29T15:14:06.572Z,23.30
2018-06-29T15:19:00.685Z,26.00
2018-06-29T15:21:27.701Z,25.30
2018-06-29T15:26:21.820Z,26.40
2018-06-29T15:28:48.845Z,26.90
2018-06-29T15:33:43.826Z,28.20
2018-06-29T15:36:10.816Z,27.40
2018-06-29T15:38:37.859Z,28.80
2018-06-29T15:41:05.903Z,27.80
2018-06-29T15:43:32.918Z,24.30
2018-06-29T15:45:59.924Z,24.40
2018-06-29T15:48:27.092Z,24.80
2018-06-29T15:50:55.075Z,26.00
2018-06-29T15:53:22.092Z,28.10
2018-06-29T15:55:49.138Z,22.80
2018-06-29T15:58:16.147Z,21.90
2018-06-29T16:03:21.824Z,24.30
2018-06-29T16:08:15.901Z,26.10
2018-06-29T16:10:42.925Z,26.50
2018-06-29T16:13:09.928Z,28.40
2018-06-29T16:15:36.933Z,28.00
2018-06-29T16:18:03.983Z,26.90
2018-06-29T16:20:30.985Z,28.20
2018-06-29T16:22:57.992Z,28.40
2018-06-29T16:25:25.049Z,30.10
2018-06-29T16:27:52.033Z,32.50
2018-06-29T16:30:19.028Z,33.50
2018-06-29T16:32:46.081Z,33.10
2018-06-29T16:35:13.081Z,31.30
2018-06-29T16:37:40.090Z,32.10
2018-06-29T16:40:07.122Z,31.60
2018-06-29T16:42:34.118Z,29.80
2018-06-29T16:45:01.110Z,29.80
2018-06-29T16:47:28.954Z,30.00
2018-06-29T16:49:55.959Z,30.20
2018-06-29T16:52:22.984Z,30.90
2018-06-29T16:54:50.035Z,28.80
2018-06-29T16:57:17.036Z,32.00
2018-06-29T16:59:44.075Z,33.90
2018-06-29T17:04:38.205Z,36.90
2018-06-29T17:07:06.171Z,39.40
2018-06-29T17:09:33.204Z,43.30
2018-06-29T17:12:00.212Z,50.50
2018-06-29T17:14:27.206Z,55.50
2018-06-29T17:16:54.243Z,60.00
2018-06-29T17:21:59.774Z,67.90
2018-06-29T17:24:26.774Z,68.80
2018-06-29T17:26:53.814Z,70.90
2018-06-29T17:31:47.930Z,73.90
2018-06-29T17:34:15.009Z,74.00
2018-06-29T17:36:41.963Z,74.90
2018-06-29T17:39:08.961Z,74.10
2018-06-29T17:41:35.956Z,74.50
2018-06-29T17:44:03.011Z,74.80
2018-06-29T17:46:30.086Z,73.50
2018-06-29T17:48:57.028Z,71.80
2018-06-29T17:51:24.051Z,71.20
2018-06-29T17:53:51.081Z,66.10
2018-06-29T17:56:18.098Z,69.50
2018-06-29T17:58:45.135Z,70.50
2018-06-29T18:01:12.134Z,67.50
2018-06-29T18:03:39.144Z,66.50
2018-06-29T18:06:06.179Z,66.40
2018-06-29T18:08:33.180Z,68.40
2018-06-29T18:11:01.002Z,68.20
2018-06-29T18:13:28.035Z,70.00
2018-06-29T18:15:55.057Z,73.30
2018-06-29T18:18:22.071Z,74.30
2018-06-29T18:20:49.101Z,74.10
2018-06-29T18:23:16.220Z,74.40
2018-06-29T18:25:43.228Z,73.30
2018-06-29T18:28:10.263Z,73.90
2018-06-29T18:30:37.349Z,73.00
2018-06-29T18:33:04.345Z,71.90
2018-06-29T18:35:31.373Z,73.50
2018-06-29T18:37:58.954Z,74.30
2018-06-29T18:40:25.999Z,75.20
2018-06-29T18:42:53.865Z,72.50
2018-06-29T18:50:26.491Z,73.70
2018-06-29T18:52:53.488Z,74.20
2018-06-29T18:57:47.720Z,73.80
2018-06-29T19:00:14.713Z,71.30
2018-06-29T19:02:41.767Z,72.60
2018-06-29T19:05:08.814Z,72.10
2018-06-29T19:07:35.809Z,72.90
2018-06-29T19:10:03.814Z,73.40
2018-06-29T19:12:30.816Z,70.80
2018-06-29T19:14:57.841Z,70.90
2018-06-29T19:19:52.908Z,72.60
2018-06-29T19:22:19.891Z,73.40
2018-06-29T19:29:41.244Z,81.90
2018-06-29T19:32:09.252Z,82.60
2018-06-29T19:34:36.245Z,84.80
2018-06-29T19:37:03.257Z,85.50
2018-06-29T19:39:30.432Z,86.00
2018-06-29T19:41:57.394Z,85.70
2018-06-29T19:46:52.116Z,85.40
2018-06-29T19:49:19.195Z,84.90
2018-06-29T19:51:46.275Z,85.10
2018-06-29T19:54:13.466Z,85.20
2018-06-29T19:56:40.556Z,84.40
2018-06-29T19:59:07.629Z,83.50
2018-06-29T20:01:34.794Z,83.40
2018-06-29T20:06:40.299Z,83.30
2018-06-29T20:09:07.323Z,84.10
2018-06-29T20:11:34.339Z,83.90
2018-06-29T20:14:01.370Z,84.00
2018-06-29T20:18:55.582Z,83.20
2018-06-29T20:21:22.619Z,84.00
2018-06-29T20:23:49.664Z,83.40
2018-06-29T20:28:44.841Z,84.00
2018-06-29T20:31:11.868Z,83.90
2018-06-29T20:33:38.958Z,85.60
2018-06-29T20:36:06.025Z,87.70
2018-06-29T20:38:33.064Z,89.00
2018-06-29T20:41:00.176Z,88.30
2018-06-29T20:43:27.314Z,87.70
2018-06-29T20:45:54.482Z,88.30
2018-06-29T20:48:21.498Z,88.40
2018-06-29T20:50:48.538Z,88.10
2018-06-29T20:53:15.545Z,88.40
2018-06-29T20:55:42.732Z,88.20
2018-06-29T20:58:09.747Z,89.10
2018-06-29T21:00:36.730Z,89.50
2018-06-29T21:03:03.733Z,89.20
2018-06-29T21:10:24.963Z,92.00
2018-06-29T21:12:51.994Z,91.40
2018-06-29T21:17:57.496Z,91.20
2018-06-29T21:20:24.488Z,90.40
2018-06-29T21:22:51.487Z,89.90
2018-06-29T21:25:18.525Z,90.20
2018-06-29T21:27:45.521Z,92.40
2018-06-29T21:30:12.517Z,92.00
2018-06-29T21:32:39.542Z,91.50
2018-06-29T21:35:06.543Z,90.50
2018-06-29T21:37:33.545Z,91.90
2018-06-29T21:40:00.594Z,91.80
2018-06-29T21:42:28.468Z,90.30
2018-06-29T21:44:55.470Z,91.20
2018-06-29T21:47:22.494Z,92.30
2018-06-29T21:49:49.497Z,91.10
2018-06-29T21:52:16.495Z,89.80
2018-06-29T21:54:43.535Z,93.80
2018-06-29T21:57:10.534Z,95.00
2018-06-29T21:59:37.532Z,95.80
2018-06-29T22:02:04.584Z,96.60
2018-06-29T22:04:31.573Z,96.30
2018-06-29T22:06:58.583Z,96.70
2018-06-29T22:09:25.606Z,97.60
2018-06-29T22:11:52.604Z,97.50
2018-06-29T22:14:19.605Z,98.40
2018-06-29T22:16:46.648Z,98.00
2018-06-29T22:19:13.647Z,98.50
2018-06-29T22:21:40.645Z,98.60
2018-06-29T22:24:07.674Z,99.00
2018-06-29T22:26:34.662Z,98.60
2018-06-29T22:29:01.656Z,98.60
2018-06-29T22:31:28.689Z,99.00
2018-06-29T22:36:36.263Z,99.90
2018-06-29T22:41:41.929Z,99.90
2018-06-29T22:44:08.920Z,99.90
2018-06-29T22:46:36.847Z,99.40
2018-06-29T22:49:03.890Z,99.50
2018-06-29T22:51:30.884Z,99.30
2018-06-29T22:53:57.886Z,98.80
2018-06-29T22:56:24.914Z,98.40
2018-06-29T22:58:51.911Z,97.60
2018-06-29T23:01:18.925Z,97.00
2018-06-29T23:03:45.952Z,97.20
2018-06-29T23:08:40.046Z,96.70
2018-06-29T23:11:07.089Z,96.70
2018-06-29T23:16:01.180Z,96.20
2018-06-29T23:18:28.208Z,96.60
2018-06-29T23:20:55.200Z,97.10
2018-06-29T23:23:22.230Z,97.80
2018-06-29T23:25:49.271Z,98.60
2018-06-29T23:28:16.279Z,98.70
2018-06-29T23:30:43.278Z,98.60
2018-06-29T23:33:10.317Z,98.70
2018-06-29T23:35:37.314Z,97.70
2018-06-29T23:38:04.328Z,97.70
2018-06-29T23:40:31.365Z,97.50
2018-06-29T23:42:58.383Z,96.60
2018-06-29T23:45:26.272Z,95.30
2018-06-29T23:47:53.237Z,95.60
2018-06-29T23:50:20.230Z,95.30
2018-06-29T23:55:14.357Z,98.40
